Time;durP1;ratioP1;P1;durP2;ratioP2;P2;SDS_P1;SDS_P2;PMS_P1;PMS_P2;Temp;Humidity;BMP_temperature;BMP_pressure;BME280_temperature;BME280_humidity;BME280_pressure;Samples;Min_cycle;Max_cycle;Signal;HPM_P1;HPM_P2
2023/09/13 00:02:59;;;;;;;10.70;7.80;;;20.50;70.80;;;;;;6017935;29;20320;-85
2023/09/13 00:06:03;;;;;;;8.90;8.10;;;20.50;70.80;;;;;;6014866;29;21027;-86
2023/09/13 00:09:08;;;;;;;8.60;7.83;;;20.50;70.50;;;;;;6024044;29;20238;-87
2023/09/13 00:12:12;;;;;;;8.70;8.10;;;20.60;70.70;;;;;;6014426;29;20379;-87
2023/09/13 00:15:22;;;;;;;8.80;8.10;;;20.70;70.60;;;;;;6035021;29;20677;-86
2023/09/13 00:18:27;;;;;;;10.70;8.47;;;20.70;70.60;;;;;;6020789;29;20245;-88
2023/09/13 00:21:30;;;;;;;9.00;8.10;;;20.70;70.40;;;;;;6017721;29;20301;-82
2023/09/13 00:24:34;;;;;;;8.23;7.73;;;20.80;70.10;;;;;;6022249;29;20255;-87
2023/09/13 00:27:37;;;;;;;10.07;8.50;;;20.80;70.00;;;;;;6012372;29;20242;-86
2023/09/13 00:30:40;;;;;;;8.10;7.60;;;20.90;69.80;;;;;;6004301;29;20305;-86
2023/09/13 00:33:45;;;;;;;8.70;7.90;;;20.90;69.40;;;;;;5997476;29;20238;-87
2023/09/13 00:36:49;;;;;;;7.97;7.47;;;20.90;69.40;;;;;;6016060;29;20246;-87
2023/09/13 00:39:52;;;;;;;8.77;7.97;;;20.90;69.20;;;;;;6023529;29;20377;-84
2023/09/13 00:42:56;;;;;;;8.37;7.80;;;20.90;69.20;;;;;;6008011;29;20244;-86
2023/09/13 00:46:02;;;;;;;8.33;7.73;;;20.90;69.10;;;;;;6006832;29;20245;-87
2023/09/13 00:49:07;;;;;;;7.80;7.30;;;20.90;68.90;;;;;;6016252;29;20802;-87
2023/09/13 00:52:11;;;;;;;8.07;7.37;;;21.00;68.60;;;;;;6008958;29;20240;-85
2023/09/13 00:55:18;;;;;;;8.20;7.40;;;21.00;68.30;;;;;;6030238;29;20240;-83
2023/09/13 00:58:22;;;;;;;8.47;7.83;;;21.00;68.20;;;;;;6017989;29;20288;-86
2023/09/13 01:01:28;;;;;;;7.97;7.47;;;21.00;68.00;;;;;;6023794;29;20248;-85
2023/09/13 01:04:36;;;;;;;7.23;6.73;;;21.00;67.80;;;;;;6015230;29;20786;-87
2023/09/13 01:07:41;;;;;;;7.80;7.30;;;21.10;67.70;;;;;;6023737;29;20241;-85
2023/09/13 01:10:44;;;;;;;7.40;6.90;;;21.00;67.60;;;;;;6023458;29;20256;-84
2023/09/13 01:13:47;;;;;;;7.37;6.87;;;21.00;67.60;;;;;;6017886;29;20253;-86
2023/09/13 01:16:58;;;;;;;7.53;6.90;;;21.00;67.70;;;;;;6030310;29;20549;-86
2023/09/13 01:20:11;;;;;;;7.77;7.17;;;21.00;67.50;;;;;;6021115;29;20253;-85
2023/09/13 01:23:50;;;;;;;7.63;6.93;;;20.90;67.40;;;;;;6026659;29;20256;-85
2023/09/13 01:27:13;;;;;;;7.23;6.77;;;20.90;67.40;;;;;;6020727;29;20239;-86
2023/09/13 01:30:20;;;;;;;7.70;7.10;;;20.90;67.20;;;;;;6024982;29;20301;-85
2023/09/13 01:33:25;;;;;;;7.37;6.83;;;20.90;67.10;;;;;;6008385;29;20245;-88
2023/09/13 01:36:29;;;;;;;7.00;6.50;;;20.80;67.20;;;;;;6013048;29;20230;-85
2023/09/13 01:39:33;;;;;;;7.00;6.30;;;20.80;67.20;;;;;;6019535;29;20266;-86
2023/09/13 01:42:41;;;;;;;6.90;6.40;;;20.80;67.30;;;;;;6020555;29;20245;-85
2023/09/13 01:45:48;;;;;;;7.00;6.37;;;20.70;67.20;;;;;;6013134;29;20236;-85
2023/09/13 01:48:52;;;;;;;6.87;6.47;;;20.80;66.90;;;;;;6021731;29;20843;-85
2023/09/13 01:51:55;;;;;;;6.87;6.47;;;20.80;66.80;;;;;;6023207;29;20255;-86
2023/09/13 01:54:58;;;;;;;7.33;6.73;;;20.80;66.80;;;;;;6013513;29;20246;-87
2023/09/13 01:58:02;;;;;;;7.23;6.80;;;20.90;66.90;;;;;;6024764;29;20624;-86
2023/09/13 02:01:07;;;;;;;20.37;8.17;;;20.90;67.00;;;;;;6024124;29;20249;-85
2023/09/13 02:04:10;;;;;;;16.50;6.93;;;21.00;67.10;;;;;;6010997;29;20323;-88
2023/09/13 02:07:17;;;;;;;16.80;6.97;;;20.90;68.80;;;;;;6003117;29;20323;-85
2023/09/13 02:10:20;;;;;;;16.27;8.00;;;20.80;69.70;;;;;;6026673;29;20337;-82
2023/09/13 02:13:26;;;;;;;13.80;8.70;;;20.50;72.80;;;;;;6006223;29;20241;-83
2023/09/13 02:16:31;;;;;;;15.27;9.10;;;20.00;76.10;;;;;;6013631;29;20742;-83
2023/09/13 02:19:35;;;;;;;13.60;8.93;;;19.70;77.50;;;;;;6011471;29;20336;-84
2023/09/13 02:22:38;;;;;;;9.53;8.63;;;19.50;77.80;;;;;;6010734;29;20244;-85
2023/09/13 02:25:44;;;;;;;12.47;9.07;;;19.40;78.00;;;;;;6011216;29;20333;-84
2023/09/13 02:28:47;;;;;;;10.30;9.47;;;19.40;78.50;;;;;;6013411;29;20249;-85
2023/09/13 02:31:52;;;;;;;10.20;9.13;;;19.40;78.90;;;;;;6018032;29;20252;-83
2023/09/13 02:34:56;;;;;;;10.83;8.37;;;19.30;79.10;;;;;;6011250;29;20327;-84
2023/09/13 02:38:13;;;;;;;9.43;8.63;;;19.30;79.50;;;;;;6007038;29;20240;-84
2023/09/13 02:41:16;;;;;;;12.70;8.73;;;19.30;79.90;;;;;;6002483;29;20248;-83
2023/09/13 02:44:19;;;;;;;9.37;7.50;;;19.30;80.10;;;;;;6010033;29;20275;-83
2023/09/13 02:47:24;;;;;;;10.73;9.00;;;19.30;80.00;;;;;;6027378;29;20343;-82
2023/09/13 02:50:27;;;;;;;9.97;8.80;;;19.30;80.00;;;;;;6019566;29;20305;-82
2023/09/13 02:53:31;;;;;;;11.20;8.80;;;19.20;80.20;;;;;;6015146;29;20247;-84
2023/09/13 02:56:34;;;;;;;9.17;8.27;;;19.20;80.70;;;;;;6025313;29;20324;-85
2023/09/13 02:59:40;;;;;;;10.00;8.40;;;19.20;80.70;;;;;;6021065;29;20279;-84
2023/09/13 03:02:44;;;;;;;9.47;8.50;;;19.20;80.90;;;;;;6019035;29;20386;-84
2023/09/13 03:05:47;;;;;;;9.07;8.27;;;19.20;80.90;;;;;;6011749;29;20253;-85
2023/09/13 03:08:51;;;;;;;9.20;8.40;;;19.20;80.80;;;;;;6021520;29;20346;-85
2023/09/13 03:11:54;;;;;;;10.13;7.90;;;19.10;80.90;;;;;;6002897;29;20926;-85
2023/09/13 03:14:57;;;;;;;10.43;8.00;;;19.10;80.70;;;;;;6011799;29;20249;-85
2023/09/13 03:18:01;;;;;;;9.67;8.30;;;19.00;80.70;;;;;;6005388;29;20245;-85
2023/09/13 03:21:07;;;;;;;8.63;7.73;;;19.00;81.00;;;;;;6012772;29;20257;-84
2023/09/13 03:24:11;;;;;;;10.63;7.43;;;18.90;81.10;;;;;;6011144;29;20249;-84
2023/09/13 03:27:14;;;;;;;7.67;7.00;;;18.80;81.20;;;;;;6017473;29;20243;-85
2023/09/13 03:30:18;;;;;;;8.20;7.60;;;18.80;81.40;;;;;;6017585;29;20252;-84
2023/09/13 03:33:22;;;;;;;8.53;7.80;;;18.70;81.30;;;;;;6013713;29;20240;-83
2023/09/13 03:36:29;;;;;;;8.27;7.50;;;18.80;81.40;;;;;;6019868;29;20275;-85
2023/09/13 03:39:34;;;;;;;8.53;7.40;;;18.70;81.40;;;;;;6010197;29;20882;-83
2023/09/13 03:42:37;;;;;;;7.93;7.23;;;18.70;81.50;;;;;;6005264;29;20242;-83
2023/09/13 03:45:40;;;;;;;9.60;8.70;;;18.70;81.60;;;;;;6015717;29;20244;-85
2023/09/13 03:48:45;;;;;;;11.77;9.43;;;18.60;81.80;;;;;;6020871;29;20240;-82
2023/09/13 03:51:52;;;;;;;8.93;8.13;;;18.60;82.00;;;;;;6008024;29;20252;-83
2023/09/13 03:54:55;;;;;;;10.90;9.93;;;18.50;82.00;;;;;;6014022;29;20367;-85
2023/09/13 03:57:58;;;;;;;9.37;8.47;;;18.50;82.20;;;;;;6018366;29;20324;-84
2023/09/13 04:01:02;;;;;;;9.77;8.80;;;18.50;82.20;;;;;;6010851;29;20275;-82
2023/09/13 04:04:07;;;;;;;10.17;9.17;;;18.50;82.20;;;;;;6016805;29;20248;-83
2023/09/13 04:07:11;;;;;;;13.60;11.77;;;18.40;82.30;;;;;;6016719;29;20245;-84
2023/09/13 04:10:15;;;;;;;16.03;11.83;;;18.50;82.50;;;;;;6002846;29;20400;-83
2023/09/13 04:13:18;;;;;;;14.40;11.47;;;18.50;82.60;;;;;;6006708;29;20257;-81
2023/09/13 04:16:22;;;;;;;12.50;10.93;;;18.40;82.60;;;;;;6018455;29;20248;-85
2023/09/13 04:19:26;;;;;;;12.70;10.53;;;18.40;82.60;;;;;;6018553;29;20328;-84
2023/09/13 04:22:31;;;;;;;12.07;10.30;;;18.40;82.60;;;;;;6007593;29;20857;-82
2023/09/13 04:25:36;;;;;;;14.00;11.43;;;18.30;82.70;;;;;;6008429;29;20863;-84
2023/09/13 04:28:40;;;;;;;13.27;10.47;;;18.30;82.80;;;;;;6010679;29;20249;-82
2023/09/13 04:31:43;;;;;;;14.47;11.63;;;18.30;82.70;;;;;;6014467;29;20253;-83
2023/09/13 04:34:48;;;;;;;12.70;11.43;;;18.30;82.70;;;;;;6016029;29;20414;-85
2023/09/13 04:37:51;;;;;;;13.27;11.97;;;18.30;82.70;;;;;;6013858;29;20251;-83
2023/09/13 04:40:54;;;;;;;12.10;10.87;;;18.20;82.70;;;;;;6019637;29;20241;-82
2023/09/13 04:43:57;;;;;;;13.80;10.93;;;18.20;82.80;;;;;;6012286;29;20241;-81
2023/09/13 04:47:04;;;;;;;11.80;10.63;;;18.30;82.80;;;;;;6015359;29;20277;-84
2023/09/13 04:50:10;;;;;;;12.50;11.20;;;18.20;82.70;;;;;;6010423;29;20256;-82
2023/09/13 04:53:15;;;;;;;13.77;12.27;;;18.20;82.80;;;;;;6002829;29;20237;-82
2023/09/13 04:56:18;;;;;;;12.27;11.23;;;18.20;82.90;;;;;;6014449;29;20336;-82
2023/09/13 04:59:25;;;;;;;13.50;12.13;;;18.20;82.80;;;;;;6020937;29;20926;-83
2023/09/13 05:02:29;;;;;;;12.73;11.43;;;18.20;82.90;;;;;;6019383;29;20229;-80
2023/09/13 05:05:34;;;;;;;15.13;13.67;;;18.20;82.80;;;;;;6016633;29;20267;-81
2023/09/13 05:08:37;;;;;;;14.67;13.27;;;18.20;83.00;;;;;;6015215;29;20290;-82
2023/09/13 05:11:41;;;;;;;15.10;13.50;;;18.10;83.00;;;;;;6014568;29;20865;-84
2023/09/13 05:14:45;;;;;;;14.17;12.87;;;18.20;82.80;;;;;;6027734;29;20244;-83
2023/09/13 05:17:51;;;;;;;16.30;14.83;;;18.10;83.00;;;;;;6009169;29;20267;-83
2023/09/13 05:20:56;;;;;;;15.63;14.27;;;18.10;83.00;;;;;;5998305;29;20305;-81
2023/09/13 05:23:59;;;;;;;17.77;16.03;;;18.10;83.20;;;;;;6012307;29;20241;-78
2023/09/13 05:27:02;;;;;;;18.40;16.50;;;18.10;83.50;;;;;;6007504;29;20909;-80
2023/09/13 05:30:07;;;;;;;18.00;16.27;;;18.00;84.40;;;;;;6004596;29;20320;-79
2023/09/13 05:33:10;;;;;;;18.27;16.43;;;17.90;84.50;;;;;;6012509;29;20987;-78
2023/09/13 05:36:15;;;;;;;18.77;16.43;;;18.00;84.60;;;;;;6014115;29;20328;-79
2023/09/13 05:39:20;;;;;;;16.63;15.03;;;17.90;84.60;;;;;;6014519;29;20241;-77
2023/09/13 05:42:24;;;;;;;19.77;17.43;;;18.00;84.60;;;;;;6016774;29;20256;-83
2023/09/13 05:45:28;;;;;;;21.13;17.83;;;18.00;84.70;;;;;;6019372;29;20273;-82
2023/09/13 05:48:31;;;;;;;19.40;17.50;;;18.10;84.60;;;;;;6020222;29;20245;-85
2023/09/13 05:51:36;;;;;;;19.97;17.93;;;18.10;84.40;;;;;;6014066;29;20245;-84
2023/09/13 05:54:39;;;;;;;18.80;16.83;;;18.20;84.20;;;;;;6018293;29;20284;-82
2023/09/13 05:57:42;;;;;;;21.10;17.67;;;18.20;84.00;;;;;;6009046;29;20332;-83
2023/09/13 06:00:48;;;;;;;18.93;16.93;;;18.20;83.70;;;;;;6012630;29;20246;-83
2023/09/13 06:03:51;;;;;;;19.57;17.57;;;18.30;83.50;;;;;;6019093;29;20253;-82
2023/09/13 06:06:58;;;;;;;21.60;19.27;;;18.10;83.70;;;;;;6007717;29;20725;-80
2023/09/13 06:10:02;;;;;;;21.00;18.93;;;18.10;83.90;;;;;;6016429;29;20332;-84
2023/09/13 06:13:05;;;;;;;17.67;16.03;;;18.10;84.00;;;;;;6016306;29;20253;-83
2023/09/13 06:16:08;;;;;;;22.40;17.27;;;18.40;84.10;;;;;;6016885;29;20244;-84
2023/09/13 06:19:12;;;;;;;20.70;18.70;;;18.50;83.00;;;;;;6012411;29;21801;-83
2023/09/13 06:22:17;;;;;;;19.87;17.87;;;18.50;82.70;;;;;;6006715;29;20327;-84
2023/09/13 06:25:21;;;;;;;17.90;16.20;;;18.60;82.80;;;;;;6020848;29;20241;-81
2023/09/13 06:28:24;;;;;;;18.70;17.03;;;18.70;82.70;;;;;;6005765;29;20248;-82
2023/09/13 06:31:27;;;;;;;20.60;17.13;;;18.70;82.50;;;;;;6003825;29;20790;-83
2023/09/13 06:34:36;;;;;;;19.37;17.33;;;18.80;82.30;;;;;;6017791;29;20355;-83
2023/09/13 06:37:41;;;;;;;18.70;16.93;;;18.80;81.90;;;;;;6009699;29;20331;-82
2023/09/13 06:40:47;;;;;;;16.97;15.27;;;18.80;81.60;;;;;;6010239;29;20282;-81
2023/09/13 06:43:51;;;;;;;16.07;14.50;;;18.80;81.40;;;;;;6007292;29;20325;-80
2023/09/13 06:47:10;;;;;;;16.57;14.90;;;18.90;81.20;;;;;;6020160;29;20269;-82
2023/09/13 06:50:14;;;;;;;15.30;14.00;;;18.90;81.40;;;;;;6004779;29;20259;-83
2023/09/13 06:53:19;;;;;;;14.73;13.27;;;18.90;81.30;;;;;;6019117;29;20245;-80
2023/09/13 06:56:25;;;;;;;15.13;13.67;;;19.20;81.00;;;;;;6015514;29;20291;-80
2023/09/13 06:59:32;;;;;;;14.90;13.33;;;19.50;79.50;;;;;;6004990;29;20241;-80
2023/09/13 07:02:56;;;;;;;14.87;13.13;;;19.60;79.20;;;;;;6012425;29;20306;-79
2023/09/13 07:06:03;;;;;;;13.07;11.60;;;19.70;78.70;;;;;;6016860;29;20245;-79
2023/09/13 07:09:07;;;;;;;14.53;11.30;;;19.70;78.60;;;;;;6017690;29;20288;-81
2023/09/13 07:12:11;;;;;;;11.80;10.70;;;19.50;78.60;;;;;;6016055;29;20432;-82
2023/09/13 07:15:14;;;;;;;11.03;10.23;;;19.60;78.60;;;;;;6006741;29;20256;-79
2023/09/13 07:18:18;;;;;;;10.23;9.37;;;19.60;78.30;;;;;;6017757;29;20381;-80
2023/09/13 07:21:21;;;;;;;9.50;8.77;;;19.60;77.30;;;;;;6012686;29;20255;-80
2023/09/13 07:24:26;;;;;;;8.70;8.00;;;19.70;77.40;;;;;;6004889;29;20355;-79
2023/09/13 07:27:29;;;;;;;9.50;8.63;;;19.50;77.40;;;;;;6009351;29;20335;-80
2023/09/13 07:30:32;;;;;;;9.13;8.27;;;19.50;77.50;;;;;;6011039;29;20256;-83
2023/09/13 07:33:35;;;;;;;9.10;8.20;;;19.50;77.10;;;;;;6011678;29;20310;-80
2023/09/13 07:36:38;;;;;;;9.10;8.40;;;19.60;76.50;;;;;;6018980;29;20745;-82
2023/09/13 07:39:42;;;;;;;9.03;8.33;;;19.50;77.00;;;;;;6007434;29;20261;-81
2023/09/13 07:42:46;;;;;;;10.27;9.27;;;19.70;77.00;;;;;;6011845;29;20245;-79
2023/09/13 07:45:50;;;;;;;9.47;8.67;;;19.50;77.20;;;;;;6006335;29;20248;-80
2023/09/13 07:48:54;;;;;;;9.07;8.27;;;19.50;77.30;;;;;;6008426;29;20248;-79
2023/09/13 07:51:57;;;;;;;9.27;8.47;;;19.50;77.00;;;;;;6004956;29;20249;-81
2023/09/13 07:55:02;;;;;;;8.03;7.33;;;19.70;77.30;;;;;;6013345;29;20228;-80
2023/09/13 07:58:06;;;;;;;8.23;7.43;;;19.70;76.40;;;;;;6023184;29;20735;-80
2023/09/13 08:01:09;;;;;;;7.37;6.87;;;19.50;76.10;;;;;;6005152;29;20335;-80
2023/09/13 08:04:12;;;;;;;7.40;6.80;;;19.40;76.30;;;;;;6010731;29;20240;-81
2023/09/13 08:07:15;;;;;;;8.20;7.53;;;19.40;76.40;;;;;;6011911;29;20745;-80
2023/09/13 08:10:21;;;;;;;8.30;7.60;;;19.40;76.60;;;;;;6014723;29;20797;-79
2023/09/13 08:13:24;;;;;;;8.60;7.90;;;19.40;76.60;;;;;;6010555;29;20244;-79
2023/09/13 08:16:28;;;;;;;8.17;7.53;;;19.40;76.60;;;;;;6009766;29;20248;-79
2023/09/13 08:19:31;;;;;;;8.40;7.83;;;19.60;76.40;;;;;;6014586;29;20237;-79
2023/09/13 08:22:34;;;;;;;8.43;7.90;;;19.60;75.90;;;;;;6016325;29;20948;-79
2023/09/13 08:25:44;;;;;;;8.43;7.73;;;19.50;75.80;;;;;;6020198;29;20256;-80
2023/09/13 08:28:49;;;;;;;7.43;7.13;;;19.50;76.20;;;;;;6024459;29;20736;-80
2023/09/13 08:31:53;;;;;;;7.73;7.13;;;19.90;75.00;;;;;;6007714;29;20393;-81
2023/09/13 08:34:56;;;;;;;8.10;7.70;;;19.90;75.40;;;;;;6011132;29;20249;-79
2023/09/13 08:37:59;;;;;;;8.47;7.70;;;19.70;75.60;;;;;;6000505;29;20244;-79
2023/09/13 08:41:04;;;;;;;8.40;7.90;;;19.50;76.10;;;;;;6010210;29;20248;-81
2023/09/13 08:44:08;;;;;;;7.50;7.00;;;19.40;76.30;;;;;;6012546;29;20253;-80
2023/09/13 08:47:13;;;;;;;7.67;7.17;;;19.50;76.20;;;;;;6016628;29;20309;-80
2023/09/13 08:50:23;;;;;;;7.00;6.50;;;19.70;75.20;;;;;;6016912;29;20596;-80
2023/09/13 08:53:27;;;;;;;6.83;6.30;;;19.80;74.40;;;;;;6016179;29;20809;-80
2023/09/13 08:56:32;;;;;;;5.73;5.23;;;19.80;74.60;;;;;;6009004;29;20264;-79
2023/09/13 08:59:35;;;;;;;5.47;5.17;;;20.00;74.20;;;;;;6023047;29;20271;-78
2023/09/13 09:02:40;;;;;;;5.33;4.90;;;20.10;73.00;;;;;;6014369;29;20271;-81
2023/09/13 09:05:44;;;;;;;5.20;4.90;;;20.20;72.70;;;;;;6016514;29;20289;-80
2023/09/13 09:08:51;;;;;;;5.67;5.33;;;20.30;72.30;;;;;;6020843;29;20278;-78
2023/09/13 09:12:00;;;;;;;5.57;5.27;;;20.10;73.00;;;;;;6027330;29;20317;-80
2023/09/13 09:15:05;;;;;;;5.03;4.83;;;20.00;73.40;;;;;;6001221;29;20285;-82
2023/09/13 09:18:11;;;;;;;5.00;4.67;;;19.70;74.10;;;;;;6013771;29;20279;-81
2023/09/13 09:21:16;;;;;;;4.70;4.40;;;19.70;74.30;;;;;;6020448;29;20247;-80
2023/09/13 09:24:20;;;;;;;4.57;4.37;;;19.70;74.60;;;;;;6013835;29;20244;-80
2023/09/13 09:27:24;;;;;;;4.00;3.90;;;19.70;74.70;;;;;;6009462;29;20264;-81
2023/09/13 09:30:32;;;;;;;3.97;3.53;;;19.70;74.90;;;;;;6012958;29;20290;-81
2023/09/13 09:33:38;;;;;;;4.40;4.03;;;19.70;74.70;;;;;;6010460;29;20250;-81
2023/09/13 09:36:41;;;;;;;3.60;3.60;;;19.60;74.60;;;;;;6023016;29;20237;-80
2023/09/13 09:39:45;;;;;;;4.17;3.97;;;19.50;75.30;;;;;;6020583;29;20241;-80
2023/09/13 09:42:54;;;;;;;4.23;4.03;;;19.50;75.40;;;;;;6018680;29;20622;-80
2023/09/13 09:45:59;;;;;;;4.00;3.90;;;19.60;75.40;;;;;;6015383;29;20333;-80
2023/09/13 09:49:04;;;;;;;4.10;4.00;;;19.70;75.20;;;;;;6020582;29;20286;-79
2023/09/13 09:52:07;;;;;;;3.83;3.73;;;19.70;75.00;;;;;;6007683;29;20257;-79
2023/09/13 09:55:15;;;;;;;4.20;4.10;;;19.90;74.90;;;;;;6012145;29;20807;-80
2023/09/13 09:58:22;;;;;;;4.13;3.90;;;19.80;74.90;;;;;;6014345;29;20649;-79
2023/09/13 10:01:25;;;;;;;4.70;4.50;;;19.70;75.00;;;;;;6014251;29;20320;-79
2023/09/13 10:04:28;;;;;;;4.40;4.30;;;19.80;75.10;;;;;;6003765;29;20772;-77
2023/09/13 10:07:32;;;;;;;3.93;3.83;;;19.80;75.30;;;;;;6003729;29;20251;-80
2023/09/13 10:10:35;;;;;;;4.10;3.90;;;20.10;74.60;;;;;;6010843;29;20244;-75
2023/09/13 10:13:41;;;;;;;3.80;3.70;;;20.50;73.60;;;;;;6017156;29;20628;-78
2023/09/13 10:16:44;;;;;;;4.07;3.87;;;20.60;73.20;;;;;;6012192;29;20261;-76
2023/09/13 10:19:50;;;;;;;3.57;3.47;;;20.90;72.70;;;;;;6006809;29;20273;-75
2023/09/13 10:22:57;;;;;;;4.30;4.20;;;20.80;72.30;;;;;;6015263;29;20747;-76
2023/09/13 10:26:02;;;;;;;4.00;3.90;;;20.70;72.50;;;;;;6007172;29;20233;-74
2023/09/13 10:29:11;;;;;;;4.07;3.97;;;20.80;72.40;;;;;;6005459;29;20244;-77
2023/09/13 10:32:22;;;;;;;4.20;4.10;;;20.80;72.60;;;;;;6012532;29;20245;-79
2023/09/13 10:35:28;;;;;;;3.83;3.60;;;20.80;72.30;;;;;;6008747;29;20233;-77
2023/09/13 10:38:38;;;;;;;3.83;3.73;;;20.90;72.20;;;;;;6016971;29;20258;-80
2023/09/13 10:42:00;;;;;;;3.87;3.67;;;21.20;71.60;;;;;;6016673;29;20269;-79
2023/09/13 10:45:07;;;;;;;3.87;3.77;;;21.20;71.70;;;;;;6009725;29;20251;-78
2023/09/13 10:48:12;;;;;;;6.33;4.37;;;21.10;72.00;;;;;;6013757;29;20335;-78
2023/09/13 10:51:16;;;;;;;3.40;3.30;;;21.10;72.00;;;;;;6013230;29;20244;-79
2023/09/13 10:54:20;;;;;;;4.20;4.00;;;21.10;72.10;;;;;;6010835;29;20293;-79
2023/09/13 10:57:24;;;;;;;3.90;3.77;;;21.20;72.30;;;;;;6008528;29;20829;-78
2023/09/13 11:00:32;;;;;;;4.13;3.80;;;21.50;71.70;;;;;;6005256;29;20245;-77
2023/09/13 11:03:35;;;;;;;3.90;3.70;;;21.40;71.80;;;;;;6014032;29;20244;-78
2023/09/13 11:06:39;;;;;;;4.00;3.90;;;21.10;72.20;;;;;;6013863;29;20244;-78
2023/09/13 11:09:43;;;;;;;4.10;4.00;;;21.00;72.60;;;;;;6013452;29;20325;-77
2023/09/13 11:12:50;;;;;;;4.10;3.90;;;21.10;73.20;;;;;;6002088;29;20866;-78
2023/09/13 11:16:01;;;;;;;4.00;3.90;;;21.40;72.30;;;;;;6005064;29;20343;-77
2023/09/13 11:19:05;;;;;;;3.97;3.77;;;21.20;72.30;;;;;;6013277;29;20746;-79
2023/09/13 11:22:08;;;;;;;3.83;3.67;;;21.30;72.40;;;;;;6014944;29;20318;-75
2023/09/13 11:25:13;;;;;;;3.30;3.20;;;21.30;72.30;;;;;;6003828;29;20769;-78
2023/09/13 11:28:44;;;;;;;3.30;3.30;;;21.10;72.30;;;;;;6015375;29;20289;-76
2023/09/13 11:31:59;;;;;;;3.60;3.50;;;21.10;72.90;;;;;;6015276;29;20283;-78
2023/09/13 11:35:05;;;;;;;3.83;3.37;;;21.10;72.40;;;;;;6011766;29;20293;-81
2023/09/13 11:38:08;;;;;;;3.97;3.83;;;21.10;72.30;;;;;;6016654;29;20729;-79
2023/09/13 11:41:16;;;;;;;3.77;3.47;;;21.30;72.00;;;;;;6032992;29;20696;-76
2023/09/13 11:44:22;;;;;;;3.80;3.60;;;21.10;72.30;;;;;;6019225;29;20244;-77
2023/09/13 11:47:37;;;;;;;3.80;3.60;;;21.30;72.30;;;;;;6009053;29;20906;-75
2023/09/13 11:50:43;;;;;;;3.97;3.73;;;21.00;73.70;;;;;;6009204;29;20823;-77
2023/09/13 11:53:51;;;;;;;4.20;3.90;;;20.80;75.70;;;;;;6008991;29;20240;-75
2023/09/13 11:56:57;;;;;;;4.10;3.90;;;20.70;76.50;;;;;;6015536;29;20262;-77
2023/09/13 12:00:22;;;;;;;4.63;4.23;;;20.50;77.50;;;;;;6004745;29;20251;-80
2023/09/13 12:03:29;;;;;;;4.03;3.83;;;20.30;78.00;;;;;;6014676;29;20230;-76
2023/09/13 12:06:54;;;;;;;4.10;4.00;;;20.40;78.10;;;;;;6005417;29;20244;-77
2023/09/13 12:10:01;;;;;;;4.47;4.30;;;20.50;78.00;;;;;;6000415;29;20710;-76
2023/09/13 12:13:09;;;;;;;4.87;4.67;;;20.40;78.40;;;;;;6007513;29;20244;-78
2023/09/13 12:16:32;;;;;;;4.53;4.33;;;20.50;78.50;;;;;;5998448;29;20253;-78
2023/09/13 12:19:38;;;;;;;4.67;4.23;;;20.50;78.30;;;;;;6006309;29;20753;-76
2023/09/13 12:22:42;;;;;;;4.57;4.43;;;20.60;78.40;;;;;;6009214;29;20249;-77
2023/09/13 12:25:46;;;;;;;3.90;3.80;;;20.60;78.50;;;;;;6005055;29;20236;-76
2023/09/13 12:28:50;;;;;;;4.23;4.03;;;20.70;78.80;;;;;;6006113;29;20331;-77
2023/09/13 12:31:57;;;;;;;4.50;4.30;;;20.90;78.60;;;;;;6018246;29;20248;-76
2023/09/13 12:35:03;;;;;;;5.10;4.77;;;21.00;77.60;;;;;;6024246;29;20228;-77
2023/09/13 12:38:07;;;;;;;4.60;4.30;;;20.90;77.30;;;;;;6016553;29;20851;-74
2023/09/13 12:41:11;;;;;;;4.50;4.30;;;20.90;77.40;;;;;;6004481;29;20245;-75
2023/09/13 12:44:18;;;;;;;4.33;4.13;;;20.90;77.20;;;;;;6002566;29;20249;-75
2023/09/13 12:47:21;;;;;;;4.10;4.00;;;20.80;77.10;;;;;;6002434;29;20246;-75
2023/09/13 12:50:26;;;;;;;4.70;4.50;;;20.80;77.10;;;;;;6014751;29;20252;-77
2023/09/13 12:53:37;;;;;;;3.87;3.77;;;20.90;76.80;;;;;;6022933;29;20259;-76
2023/09/13 12:56:42;;;;;;;4.57;4.43;;;20.90;77.00;;;;;;6017808;29;20249;-75
2023/09/13 12:59:46;;;;;;;3.83;3.73;;;21.00;77.20;;;;;;6015277;29;20851;-76
2023/09/13 13:02:54;;;;;;;3.83;3.73;;;21.10;76.70;;;;;;6004140;29;20246;-77
2023/09/13 13:06:01;;;;;;;4.50;4.23;;;20.80;76.80;;;;;;6004573;29;20806;-76
2023/09/13 13:09:06;;;;;;;4.37;4.17;;;20.90;76.90;;;;;;6012127;29;20264;-76
2023/09/13 13:12:15;;;;;;;3.80;3.70;;;21.00;76.20;;;;;;6012534;29;20241;-75
2023/09/13 13:15:19;;;;;;;3.90;3.80;;;20.90;76.20;;;;;;6013794;29;20320;-75
2023/09/13 13:18:22;;;;;;;3.67;3.40;;;20.80;76.10;;;;;;6019480;29;20327;-75
2023/09/13 13:21:26;;;;;;;3.40;3.30;;;20.80;75.80;;;;;;6006779;29;20250;-75
2023/09/13 13:24:42;;;;;;;3.80;3.67;;;20.80;75.40;;;;;;6010413;29;20253;-77
2023/09/13 13:27:45;;;;;;;3.60;3.50;;;20.80;75.10;;;;;;6029050;29;20534;-76
2023/09/13 13:30:56;;;;;;;3.43;3.33;;;21.10;75.40;;;;;;6014435;29;20264;-75
2023/09/13 13:33:59;;;;;;;3.40;3.20;;;21.10;74.60;;;;;;6017511;29;20232;-77
2023/09/13 13:37:04;;;;;;;4.17;3.77;;;21.00;74.70;;;;;;6012814;29;20261;-77
2023/09/13 13:40:08;;;;;;;3.33;3.20;;;20.90;74.70;;;;;;6012677;29;20717;-76
2023/09/13 13:43:11;;;;;;;3.43;3.33;;;20.90;75.20;;;;;;6008810;29;20325;-75
2023/09/13 13:46:15;;;;;;;3.57;3.33;;;21.00;74.30;;;;;;6010276;29;20237;-75
2023/09/13 13:49:18;;;;;;;4.00;3.80;;;20.90;74.40;;;;;;6016254;29;20372;-76
2023/09/13 13:52:23;;;;;;;3.57;3.47;;;20.90;74.50;;;;;;6017967;29;20378;-77
2023/09/13 13:55:26;;;;;;;3.47;3.37;;;21.10;74.50;;;;;;6018126;29;20313;-75
2023/09/13 13:58:30;;;;;;;3.37;3.17;;;21.40;73.70;;;;;;6008115;29;20240;-75
2023/09/13 14:01:33;;;;;;;3.20;3.20;;;21.50;73.10;;;;;;6006464;29;20291;-77
2023/09/13 14:04:37;;;;;;;3.10;3.10;;;21.70;72.70;;;;;;6010428;29;20728;-75
2023/09/13 14:07:42;;;;;;;3.60;2.77;;;21.90;72.00;;;;;;6016046;29;20747;-76
2023/09/13 14:10:45;;;;;;;3.30;3.20;;;22.10;70.20;;;;;;6009286;29;20249;-75
2023/09/13 14:13:48;;;;;;;3.03;3.03;;;22.20;70.20;;;;;;6011809;29;20252;-77
2023/09/13 14:16:54;;;;;;;3.40;3.27;;;22.20;69.90;;;;;;6008410;29;20249;-79
2023/09/13 14:19:57;;;;;;;2.90;2.90;;;22.00;69.90;;;;;;6016306;29;20245;-81
2023/09/13 14:23:02;;;;;;;2.77;2.77;;;21.90;70.70;;;;;;6017704;29;20248;-79
2023/09/13 14:26:08;;;;;;;2.70;2.70;;;21.90;70.20;;;;;;6022792;29;20767;-79
2023/09/13 14:29:14;;;;;;;2.57;2.57;;;22.00;70.20;;;;;;6005944;29;20328;-80
2023/09/13 14:32:18;;;;;;;3.00;2.90;;;22.10;69.50;;;;;;6003207;29;20364;-79
2023/09/13 14:35:21;;;;;;;2.90;2.90;;;22.10;69.60;;;;;;6016364;29;20241;-81
2023/09/13 14:38:27;;;;;;;2.80;2.80;;;22.20;69.40;;;;;;6015250;29;20257;-81
2023/09/13 14:41:30;;;;;;;2.83;2.73;;;22.20;69.10;;;;;;6016149;29;20310;-78
2023/09/13 14:44:34;;;;;;;3.43;3.33;;;22.20;69.20;;;;;;6013616;29;20237;-81
2023/09/13 14:47:37;;;;;;;3.30;3.10;;;22.10;69.30;;;;;;6016368;29;20891;-80
2023/09/13 14:50:40;;;;;;;3.63;3.53;;;22.00;69.30;;;;;;6011772;29;20276;-77
2023/09/13 14:53:45;;;;;;;4.00;3.80;;;21.80;70.80;;;;;;6009705;29;20248;-79
2023/09/13 14:56:48;;;;;;;4.07;3.97;;;21.70;71.60;;;;;;6012475;29;20417;-80
2023/09/13 14:59:52;;;;;;;3.83;3.73;;;21.50;72.00;;;;;;6013996;29;20288;-80
2023/09/13 15:02:56;;;;;;;3.50;3.40;;;21.50;72.10;;;;;;6005202;29;20260;-77
2023/09/13 15:06:03;;;;;;;3.40;3.20;;;21.50;72.20;;;;;;6012190;29;20236;-80
2023/09/13 15:09:09;;;;;;;3.40;3.30;;;21.60;71.80;;;;;;6012394;29;20245;-78
2023/09/13 15:12:13;;;;;;;3.13;3.03;;;21.70;71.60;;;;;;6008505;29;20732;-77
2023/09/13 15:15:16;;;;;;;3.60;3.50;;;21.90;70.90;;;;;;6011925;29;20245;-79
2023/09/13 15:18:19;;;;;;;3.80;3.60;;;21.90;70.80;;;;;;6014151;29;20252;-80
2023/09/13 15:21:22;;;;;;;3.40;3.30;;;22.00;70.70;;;;;;6015745;29;20527;-81
2023/09/13 15:24:27;;;;;;;2.57;2.47;;;22.00;69.60;;;;;;6032743;29;20235;-77
2023/09/13 15:27:30;;;;;;;2.70;2.70;;;21.70;68.70;;;;;;6013731;29;20233;-80
2023/09/13 15:30:33;;;;;;;4.00;3.80;;;21.40;69.80;;;;;;6012711;29;20244;-78
2023/09/13 15:33:39;;;;;;;3.40;3.30;;;21.10;70.70;;;;;;6014018;29;20257;-77
2023/09/13 15:36:45;;;;;;;3.30;3.20;;;20.90;71.80;;;;;;6011747;29;20251;-78
2023/09/13 15:39:58;;;;;;;3.17;3.07;;;20.90;72.10;;;;;;6021756;29;20232;-78
2023/09/13 15:43:05;;;;;;;3.47;3.37;;;20.80;72.70;;;;;;6015363;29;20798;-81
2023/09/13 15:46:12;;;;;;;3.63;3.53;;;20.80;72.90;;;;;;6005902;29;20958;-77
2023/09/13 15:49:22;;;;;;;3.73;3.53;;;20.80;73.30;;;;;;6000227;29;20245;-80
2023/09/13 15:52:25;;;;;;;3.03;3.03;;;20.80;73.30;;;;;;6013646;29;20253;-78
2023/09/13 15:55:30;;;;;;;3.47;3.33;;;20.70;73.40;;;;;;6008629;29;20248;-80
2023/09/13 15:58:33;;;;;;;3.60;3.50;;;20.60;73.70;;;;;;6015871;29;20677;-79
2023/09/13 16:01:36;;;;;;;3.97;3.87;;;20.50;73.70;;;;;;6016414;29;20331;-79